Kempston Hardwick, United Kingdom
Current Conditions -  °F | °C
As of 3:50 PM on Saturday 25 Oct 2014 (Local Time) from EGTC Reporting Station
Few Clouds Few Clouds  
Wind Chill: 57°   Ceiling: Unl
Heat Index: 57°   Visibility: 6mi
Dew Point: 50°   Wind: 14mph
Humidity: 77%   Direction: 220°SW
Pressure: 30.03"   Gusts: NA
Location:  52.09°N, 0.5°W
Report Text: EGTC 251450Z 22012KT 9999 FEW026 14/10 Q1017
Loading
Personal Weather Stations






























Interactive Weather Map
Tropical Storm Tracking
New forecast layout! Learn more

10-Day Weather Forecast

Advertisements
Track Severe Weather on mobile